Time;durP1;ratioP1;P1;durP2;ratioP2;P2;SDS_P1;SDS_P2;PMS_P1;PMS_P2;Temp;Humidity;BMP_temperature;BMP_pressure;BME280_temperature;BME280_humidity;BME280_pressure;Samples;Min_cycle;Max_cycle;Signal;HPM_P1;HPM_P2
2023/07/13 00:00:16;;;;;;;;;2.00;2.00;;;;;;;;5076641;28;8842;-86
2023/07/13 00:02:44;;;;;;;;;2.25;2.25;;;;;;;;5076908;28;8873;-87
2023/07/13 00:05:12;;;;;;;;;2.50;2.25;;;;;;;;5076464;28;8841;-88
2023/07/13 00:07:39;;;;;;;;;2.50;1.75;;;;;;;;5073362;28;8870;-87
2023/07/13 00:10:08;;;;;;;;;3.00;3.00;;;;;;;;5072944;28;8842;-87
2023/07/13 00:12:37;;;;;;;;;3.00;3.00;;;;;;;;5072359;28;8969;-86
2023/07/13 00:15:07;;;;;;;;;4.25;3.00;;;;;;;;5073672;28;9601;-87
2023/07/13 00:17:34;;;;;;;;;4.25;3.75;;;;;;;;5073137;28;9593;-86
2023/07/13 00:20:04;;;;;;;;;3.25;2.25;;;;;;;;5073666;28;8842;-86
2023/07/13 00:22:32;;;;;;;;;4.00;3.00;;;;;;;;5073125;28;8911;-87
2023/07/13 00:25:00;;;;;;;;;3.00;3.00;;;;;;;;5072120;28;8939;-87
2023/07/13 00:27:29;;;;;;;;;0.75;0.75;;;;;;;;5071829;28;8845;-86
2023/07/13 00:29:57;;;;;;;;;3.00;3.00;;;;;;;;5072025;28;8852;-87
2023/07/13 00:32:25;;;;;;;;;2.50;2.50;;;;;;;;5071129;28;8793;-87
2023/07/13 00:34:52;;;;;;;;;3.00;3.00;;;;;;;;5071763;28;8927;-87
2023/07/13 00:37:21;;;;;;;;;4.00;4.00;;;;;;;;5071752;28;8874;-87
2023/07/13 00:39:49;;;;;;;;;3.00;3.00;;;;;;;;5071717;28;8834;-87
2023/07/13 00:42:16;;;;;;;;;2.00;2.00;;;;;;;;5071134;28;8858;-87
2023/07/13 00:45:02;;;;;;;;;3.00;3.00;;;;;;;;5071834;28;8850;-87
2023/07/13 00:47:32;;;;;;;;;2.50;2.25;;;;;;;;5071502;28;8888;-86
2023/07/13 00:49:59;;;;;;;;;3.00;3.00;;;;;;;;5071561;28;8842;-86
2023/07/13 00:52:29;;;;;;;;;2.00;2.00;;;;;;;;5071493;28;8927;-87
2023/07/13 00:54:56;;;;;;;;;3.00;3.00;;;;;;;;5071344;28;8965;-87
2023/07/13 00:57:23;;;;;;;;;3.00;3.00;;;;;;;;5071611;28;8958;-86
2023/07/13 00:59:55;;;;;;;;;4.50;4.00;;;;;;;;5072665;28;8948;-86
2023/07/13 01:02:22;;;;;;;;;2.75;2.75;;;;;;;;5070756;28;8775;-86
2023/07/13 01:04:50;;;;;;;;;3.25;3.25;;;;;;;;5071074;28;8877;-85
2023/07/13 01:07:20;;;;;;;;;3.00;3.00;;;;;;;;5071296;28;8956;-85
2023/07/13 01:09:50;;;;;;;;;4.25;4.25;;;;;;;;5071266;28;8964;-86
2023/07/13 01:12:17;;;;;;;;;4.00;4.00;;;;;;;;5071461;28;8846;-86
2023/07/13 01:14:44;;;;;;;;;5.50;4.00;;;;;;;;5071198;28;8923;-86
2023/07/13 01:17:12;;;;;;;;;3.00;3.00;;;;;;;;5071336;28;8964;-87
2023/07/13 01:19:41;;;;;;;;;4.00;4.00;;;;;;;;5071237;28;8857;-88
2023/07/13 01:22:14;;;;;;;;;3.00;3.00;;;;;;;;5071008;28;9628;-87
2023/07/13 01:24:43;;;;;;;;;4.00;4.00;;;;;;;;5071377;28;8854;-86
2023/07/13 01:27:13;;;;;;;;;5.00;5.00;;;;;;;;5070899;28;8911;-86
2023/07/13 01:29:52;;;;;;;;;2.75;2.00;;;;;;;;5073331;28;8926;-86
2023/07/13 01:32:23;;;;;;;;;4.50;4.50;;;;;;;;5073607;28;8762;-86
2023/07/13 01:34:54;;;;;;;;;5.50;4.00;;;;;;;;5073989;28;8865;-86
2023/07/13 01:37:23;;;;;;;;;5.00;5.00;;;;;;;;5073977;28;8865;-86
2023/07/13 01:39:50;;;;;;;;;6.00;4.75;;;;;;;;5074923;28;8952;-85
2023/07/13 01:42:18;;;;;;;;;4.00;4.00;;;;;;;;5074329;28;8852;-86
2023/07/13 01:44:45;;;;;;;;;5.25;4.75;;;;;;;;5071896;28;8860;-86
2023/07/13 01:47:15;;;;;;;;;4.25;4.25;;;;;;;;5071647;28;8936;-86
2023/07/13 01:49:47;;;;;;;;;6.00;5.00;;;;;;;;5070677;28;8857;-87
2023/07/13 01:52:14;;;;;;;;;5.00;5.00;;;;;;;;5070153;28;8934;-87
2023/07/13 01:54:43;;;;;;;;;5.00;5.00;;;;;;;;5070452;28;8862;-86
2023/07/13 01:57:10;;;;;;;;;5.00;5.00;;;;;;;;5070478;28;8874;-87
2023/07/13 01:59:37;;;;;;;;;4.25;4.25;;;;;;;;5070504;28;8842;-87
2023/07/13 02:02:05;;;;;;;;;5.00;5.00;;;;;;;;5035864;28;8896;-87
2023/07/13 02:04:33;;;;;;;;;4.25;4.25;;;;;;;;5070901;28;8834;-87
2023/07/13 02:07:00;;;;;;;;;6.00;6.00;;;;;;;;5070389;28;8882;-87
2023/07/13 02:09:27;;;;;;;;;4.50;4.50;;;;;;;;5070672;28;8842;-87
2023/07/13 02:11:56;;;;;;;;;3.50;3.00;;;;;;;;5070416;28;8853;-87
2023/07/13 02:14:23;;;;;;;;;4.00;4.00;;;;;;;;5070166;28;8949;-87
2023/07/13 02:16:50;;;;;;;;;4.00;4.00;;;;;;;;5072182;28;8988;-86
2023/07/13 02:19:20;;;;;;;;;5.00;4.50;;;;;;;;5071254;28;8862;-88
2023/07/13 02:21:49;;;;;;;;;4.75;4.75;;;;;;;;5086477;28;8958;-87
2023/07/13 02:24:19;;;;;;;;;5.75;5.75;;;;;;;;5090921;28;8982;-88
2023/07/13 02:26:46;;;;;;;;;4.25;3.75;;;;;;;;5090419;28;8909;-88
2023/07/13 02:29:15;;;;;;;;;6.00;4.25;;;;;;;;5090966;28;8936;-88
2023/07/13 02:31:43;;;;;;;;;4.00;4.00;;;;;;;;5091341;28;8806;-88
2023/07/13 02:34:10;;;;;;;;;4.25;4.25;;;;;;;;5074002;28;8840;-87
2023/07/13 02:36:37;;;;;;;;;3.50;3.25;;;;;;;;5091958;28;8870;-87
2023/07/13 02:39:07;;;;;;;;;3.50;3.50;;;;;;;;5092268;28;8954;-87
2023/07/13 02:41:35;;;;;;;;;4.00;4.00;;;;;;;;5090378;28;8955;-88
2023/07/13 02:44:03;;;;;;;;;4.00;3.00;;;;;;;;5090841;28;8891;-87
2023/07/13 02:46:32;;;;;;;;;4.00;4.00;;;;;;;;5090564;28;8877;-87
2023/07/13 02:48:59;;;;;;;;;6.00;4.75;;;;;;;;5090360;28;8820;-87
2023/07/13 02:51:27;;;;;;;;;4.00;4.00;;;;;;;;5090537;28;9041;-87
2023/07/13 02:53:58;;;;;;;;;4.00;4.00;;;;;;;;5090882;28;8979;-87
2023/07/13 02:56:29;;;;;;;;;4.00;4.00;;;;;;;;5091968;28;8870;-86
2023/07/13 02:58:56;;;;;;;;;3.00;3.00;;;;;;;;5091242;28;8847;-86
2023/07/13 03:01:27;;;;;;;;;6.00;3.50;;;;;;;;5090098;28;8888;-87
2023/07/13 03:03:55;;;;;;;;;2.25;2.25;;;;;;;;5090565;28;8840;-87
2023/07/13 03:06:24;;;;;;;;;3.00;3.00;;;;;;;;5093738;28;8933;-87
2023/07/13 03:08:52;;;;;;;;;4.25;3.75;;;;;;;;5094500;28;8875;-88
2023/07/13 03:11:20;;;;;;;;;4.75;4.75;;;;;;;;5094480;28;8851;-87
2023/07/13 03:13:48;;;;;;;;;4.00;4.00;;;;;;;;5096458;28;8850;-87
2023/07/13 03:16:18;;;;;;;;;6.25;4.75;;;;;;;;5095823;28;8964;-87
2023/07/13 03:18:46;;;;;;;;;4.00;4.00;;;;;;;;5094657;28;8848;-87
2023/07/13 03:21:15;;;;;;;;;4.00;4.00;;;;;;;;5082448;28;9635;-87
2023/07/13 03:23:43;;;;;;;;;4.00;4.00;;;;;;;;5073984;28;8838;-88
2023/07/13 03:26:14;;;;;;;;;5.50;5.50;;;;;;;;5073066;28;9000;-87
2023/07/13 03:28:44;;;;;;;;;4.75;4.00;;;;;;;;5073250;28;8862;-88
2023/07/13 03:31:15;;;;;;;;;4.00;4.00;;;;;;;;5073074;28;8787;-88
2023/07/13 03:33:45;;;;;;;;;4.00;4.00;;;;;;;;5073937;28;8854;-87
2023/07/13 03:36:19;;;;;;;;;4.25;4.25;;;;;;;;5074976;28;8880;-86
2023/07/13 03:38:48;;;;;;;;;5.00;4.75;;;;;;;;5073874;28;8841;-88
2023/07/13 03:41:16;;;;;;;;;8.25;5.00;;;;;;;;5077034;28;8960;-88
2023/07/13 03:43:43;;;;;;;;;3.25;3.25;;;;;;;;5074987;28;8846;-88
2023/07/13 03:46:11;;;;;;;;;3.50;3.50;;;;;;;;5072824;28;8892;-87
2023/07/13 03:48:40;;;;;;;;;4.50;4.50;;;;;;;;5071950;28;8965;-87
2023/07/13 03:51:07;;;;;;;;;5.25;4.00;;;;;;;;5072297;28;8868;-87
2023/07/13 03:53:38;;;;;;;;;4.25;4.25;;;;;;;;5072774;28;9572;-88
2023/07/13 03:56:06;;;;;;;;;4.75;4.75;;;;;;;;5072108;28;8876;-87
2023/07/13 03:58:35;;;;;;;;;4.00;4.00;;;;;;;;5072016;28;8841;-86
2023/07/13 04:01:06;;;;;;;;;4.00;4.00;;;;;;;;5071371;28;8770;-85
2023/07/13 04:03:34;;;;;;;;;4.25;4.25;;;;;;;;5071766;28;8864;-88
2023/07/13 04:06:01;;;;;;;;;4.00;4.00;;;;;;;;5072209;28;8862;-80
2023/07/13 04:08:28;;;;;;;;;3.75;3.75;;;;;;;;5078156;28;9620;-76
2023/07/13 04:10:57;;;;;;;;;9.00;4.50;;;;;;;;5071483;28;8838;-83
2023/07/13 04:13:25;;;;;;;;;1.00;1.00;;;;;;;;5074004;28;8857;-79
2023/07/13 04:15:52;;;;;;;;;6.00;4.25;;;;;;;;5074904;28;8853;-83
2023/07/13 04:18:23;;;;;;;;;3.75;2.50;;;;;;;;5073287;28;8862;-84
2023/07/13 04:20:51;;;;;;;;;5.50;4.75;;;;;;;;5078727;28;8828;-78
2023/07/13 04:23:18;;;;;;;;;6.75;6.75;;;;;;;;5090475;28;8820;-79
2023/07/13 04:25:46;;;;;;;;;5.75;5.00;;;;;;;;5090622;28;8882;-79
2023/07/13 04:28:14;;;;;;;;;8.00;6.50;;;;;;;;5090620;28;8847;-81
2023/07/13 04:30:42;;;;;;;;;5.75;5.75;;;;;;;;5089570;28;8930;-81
2023/07/13 04:33:09;;;;;;;;;6.50;5.75;;;;;;;;5090208;28;8836;-81
2023/07/13 04:35:37;;;;;;;;;6.50;6.50;;;;;;;;5090967;28;8828;-81
2023/07/13 04:38:05;;;;;;;;;6.00;6.00;;;;;;;;5090431;28;8847;-81
2023/07/13 04:40:32;;;;;;;;;6.50;5.50;;;;;;;;5090511;28;8827;-80
2023/07/13 04:43:00;;;;;;;;;4.75;4.00;;;;;;;;5091164;28;8859;-74
2023/07/13 04:45:28;;;;;;;;;5.25;5.25;;;;;;;;5093170;28;8835;-79
2023/07/13 04:47:55;;;;;;;;;5.00;5.00;;;;;;;;5092787;28;8836;-80
2023/07/13 04:50:25;;;;;;;;;5.75;5.75;;;;;;;;5094744;28;8980;-79
2023/07/13 04:52:54;;;;;;;;;5.00;4.25;;;;;;;;5093672;28;8867;-80
2023/07/13 04:55:24;;;;;;;;;6.00;4.25;;;;;;;;5093456;28;8867;-80
2023/07/13 04:57:52;;;;;;;;;5.50;3.75;;;;;;;;5091281;28;8887;-80
2023/07/13 05:00:20;;;;;;;;;7.00;5.25;;;;;;;;5089971;28;8835;-81
2023/07/13 05:02:48;;;;;;;;;5.00;5.00;;;;;;;;5089450;28;8905;-80
2023/07/13 05:05:16;;;;;;;;;4.00;4.00;;;;;;;;5089907;28;8958;-81
2023/07/13 05:07:43;;;;;;;;;5.75;4.75;;;;;;;;5089764;28;8832;-78
2023/07/13 05:10:11;;;;;;;;;4.00;4.00;;;;;;;;5089426;28;8856;-80
2023/07/13 05:12:38;;;;;;;;;6.00;4.25;;;;;;;;5089726;28;8840;-75
2023/07/13 05:15:07;;;;;;;;;4.75;4.75;;;;;;;;5089600;28;8836;-80
2023/07/13 05:17:34;;;;;;;;;4.00;4.00;;;;;;;;5089659;28;8835;-79
2023/07/13 05:20:03;;;;;;;;;6.75;4.25;;;;;;;;5088063;28;8917;-73
2023/07/13 05:22:30;;;;;;;;;3.00;3.00;;;;;;;;5069907;28;8846;-81
2023/07/13 05:24:58;;;;;;;;;5.00;4.00;;;;;;;;5069397;28;9522;-79
2023/07/13 05:27:25;;;;;;;;;4.75;2.75;;;;;;;;5068622;28;8834;-82
2023/07/13 05:29:52;;;;;;;;;2.75;2.75;;;;;;;;5069467;28;8896;-82
2023/07/13 05:32:20;;;;;;;;;4.00;4.00;;;;;;;;5070071;28;8798;-82
2023/07/13 05:34:47;;;;;;;;;3.50;3.50;;;;;;;;5069994;28;8880;-81
2023/07/13 05:37:15;;;;;;;;;3.75;3.75;;;;;;;;5069375;28;8837;-80
2023/07/13 05:39:43;;;;;;;;;3.00;3.00;;;;;;;;5070298;28;8953;-83
2023/07/13 05:42:10;;;;;;;;;2.00;2.00;;;;;;;;5069376;28;8980;-81
2023/07/13 05:44:37;;;;;;;;;3.00;3.00;;;;;;;;5069567;28;8961;-81
2023/07/13 05:47:05;;;;;;;;;3.00;3.00;;;;;;;;5069242;28;8858;-82
2023/07/13 05:49:32;;;;;;;;;2.25;2.25;;;;;;;;5069958;28;8856;-82
2023/07/13 05:51:59;;;;;;;;;3.00;1.75;;;;;;;;5072190;28;8870;-84
2023/07/13 05:54:28;;;;;;;;;3.25;2.75;;;;;;;;5070814;28;8868;-83
2023/07/13 05:56:55;;;;;;;;;2.75;2.75;;;;;;;;5071049;28;8854;-83
2023/07/13 05:59:23;;;;;;;;;3.00;3.00;;;;;;;;5069511;28;8882;-83
2023/07/13 06:01:52;;;;;;;;;3.50;2.00;;;;;;;;5069169;28;8790;-84
2023/07/13 06:04:19;;;;;;;;;4.50;3.00;;;;;;;;5069690;28;8854;-83
2023/07/13 06:06:46;;;;;;;;;5.00;4.00;;;;;;;;5069443;28;8833;-83
2023/07/13 06:09:13;;;;;;;;;2.75;2.75;;;;;;;;5069704;28;8874;-84
2023/07/13 06:11:44;;;;;;;;;4.00;2.00;;;;;;;;5069783;28;8842;-83
2023/07/13 06:14:14;;;;;;;;;2.75;2.75;;;;;;;;5069572;28;8875;-83
2023/07/13 06:16:41;;;;;;;;;2.25;2.25;;;;;;;;5069881;28;8834;-84
2023/07/13 06:19:09;;;;;;;;;2.50;2.50;;;;;;;;5070224;28;8854;-84
2023/07/13 06:21:36;;;;;;;;;3.00;3.00;;;;;;;;5084789;28;8851;-84
2023/07/13 06:24:03;;;;;;;;;5.00;2.00;;;;;;;;5092056;28;8889;-83
2023/07/13 06:26:31;;;;;;;;;3.75;2.75;;;;;;;;5092106;28;8865;-80
2023/07/13 06:29:00;;;;;;;;;2.00;2.00;;;;;;;;5090205;28;9022;-81
2023/07/13 06:31:27;;;;;;;;;4.75;2.50;;;;;;;;5089427;28;8780;-79
2023/07/13 06:33:55;;;;;;;;;4.00;1.75;;;;;;;;5088900;28;8847;-81
2023/07/13 06:36:22;;;;;;;;;3.00;3.00;;;;;;;;5089355;28;8843;-83
2023/07/13 06:38:49;;;;;;;;;2.50;2.50;;;;;;;;5086946;28;8968;-83
2023/07/13 06:41:16;;;;;;;;;4.25;3.00;;;;;;;;5091867;28;8983;-79
2023/07/13 06:43:43;;;;;;;;;5.50;4.25;;;;;;;;5093025;28;8923;-79
2023/07/13 06:46:12;;;;;;;;;2.75;2.75;;;;;;;;5094848;28;9001;-80
2023/07/13 06:48:39;;;;;;;;;4.25;4.25;;;;;;;;5092781;28;8998;-77
2023/07/13 06:51:06;;;;;;;;;5.00;3.25;;;;;;;;5092063;28;8913;-76
2023/07/13 06:53:34;;;;;;;;;3.00;3.00;;;;;;;;5092916;28;8944;-75
2023/07/13 06:56:01;;;;;;;;;4.50;4.25;;;;;;;;5092268;28;9607;-79
2023/07/13 06:58:28;;;;;;;;;4.75;4.00;;;;;;;;5092192;28;8836;-82
2023/07/13 07:00:55;;;;;;;;;5.00;3.25;;;;;;;;5091603;28;8765;-83
2023/07/13 07:03:24;;;;;;;;;5.50;3.50;;;;;;;;5092197;28;8983;-83
2023/07/13 07:05:51;;;;;;;;;3.50;3.50;;;;;;;;5091852;28;8852;-82
2023/07/13 07:08:18;;;;;;;;;5.00;3.25;;;;;;;;5092534;28;9677;-80
2023/07/13 07:10:46;;;;;;;;;5.50;3.25;;;;;;;;5091643;28;9624;-81
2023/07/13 07:13:13;;;;;;;;;5.00;3.50;;;;;;;;5092308;28;8991;-82
2023/07/13 07:15:41;;;;;;;;;4.25;3.00;;;;;;;;5091967;28;9615;-80
2023/07/13 07:18:08;;;;;;;;;3.25;3.25;;;;;;;;5091899;28;8917;-78
2023/07/13 07:20:37;;;;;;;;;4.00;2.75;;;;;;;;5085921;28;8856;-80
2023/07/13 07:23:04;;;;;;;;;2.25;2.25;;;;;;;;5071474;28;8935;-79
2023/07/13 07:25:34;;;;;;;;;4.00;3.00;;;;;;;;5071353;28;8863;-81
2023/07/13 07:28:01;;;;;;;;;3.75;3.75;;;;;;;;5073743;28;8891;-81
2023/07/13 07:30:28;;;;;;;;;3.00;3.00;;;;;;;;5077139;28;8813;-80
2023/07/13 07:32:55;;;;;;;;;4.00;4.00;;;;;;;;5072078;28;8974;-80
2023/07/13 07:35:22;;;;;;;;;4.50;3.00;;;;;;;;5071423;28;8842;-81
2023/07/13 07:37:51;;;;;;;;;4.50;4.50;;;;;;;;5070983;28;8842;-77
2023/07/13 07:40:18;;;;;;;;;3.50;3.50;;;;;;;;5070660;28;8867;-80
2023/07/13 07:42:45;;;;;;;;;3.50;3.50;;;;;;;;5071060;28;8838;-80
2023/07/13 07:45:13;;;;;;;;;3.75;3.75;;;;;;;;5070797;28;8868;-78
2023/07/13 07:47:41;;;;;;;;;4.75;4.75;;;;;;;;5071264;28;8915;-79
2023/07/13 07:50:08;;;;;;;;;3.75;3.25;;;;;;;;5070865;28;8838;-80
2023/07/13 07:52:36;;;;;;;;;5.75;4.00;;;;;;;;5071260;28;8866;-80
2023/07/13 07:55:06;;;;;;;;;3.00;3.00;;;;;;;;5071295;28;8869;-81
2023/07/13 07:57:34;;;;;;;;;5.75;5.75;;;;;;;;5071954;28;8853;-81
2023/07/13 08:00:01;;;;;;;;;6.75;5.25;;;;;;;;5072698;28;8861;-81
2023/07/13 08:02:28;;;;;;;;;5.50;4.00;;;;;;;;5072344;28;8802;-81
2023/07/13 08:04:55;;;;;;;;;5.00;3.25;;;;;;;;5072400;28;8854;-81
2023/07/13 08:07:22;;;;;;;;;3.75;3.75;;;;;;;;5071027;28;9662;-80
2023/07/13 08:09:53;;;;;;;;;4.25;4.25;;;;;;;;5071351;28;8922;-83
2023/07/13 08:12:21;;;;;;;;;4.00;4.00;;;;;;;;5071376;28;8849;-81
2023/07/13 08:14:53;;;;;;;;;4.50;4.50;;;;;;;;5071230;28;8980;-83
2023/07/13 08:17:21;;;;;;;;;5.00;5.00;;;;;;;;5071481;28;8833;-84
2023/07/13 08:19:48;;;;;;;;;4.00;4.00;;;;;;;;5070498;28;8850;-82
2023/07/13 08:22:15;;;;;;;;;5.25;4.50;;;;;;;;5089865;28;9603;-80
2023/07/13 08:24:43;;;;;;;;;3.80;3.00;;;;;;;;5091090;28;8859;-81
2023/07/13 08:27:11;;;;;;;;;4.00;4.00;;;;;;;;5091570;28;8839;-83
2023/07/13 08:29:40;;;;;;;;;8.00;8.00;;;;;;;;5091333;28;8855;-84
2023/07/13 08:32:10;;;;;;;;;4.50;3.50;;;;;;;;5090282;28;8764;-84
2023/07/13 08:34:37;;;;;;;;;2.75;2.75;;;;;;;;5091251;28;8948;-84
2023/07/13 08:37:05;;;;;;;;;9.00;6.00;;;;;;;;5090310;28;8891;-81
2023/07/13 08:39:33;;;;;;;;;5.75;5.75;;;;;;;;5090709;28;8855;-77
2023/07/13 08:42:06;;;;;;;;;3.25;3.25;;;;;;;;5090004;28;9050;-81
2023/07/13 08:44:46;;;;;;;;;4.00;2.60;;;;;;;;5090568;28;8890;-78
2023/07/13 08:47:15;;;;;;;;;1.80;1.80;;;;;;;;5090119;28;8839;-83
2023/07/13 08:49:44;;;;;;;;;4.20;3.00;;;;;;;;5090869;28;8843;-83
2023/07/13 08:52:17;;;;;;;;;1.80;1.80;;;;;;;;5090381;28;8962;-78
2023/07/13 08:54:49;;;;;;;;;2.00;2.00;;;;;;;;5090570;28;8875;-77
2023/07/13 08:57:19;;;;;;;;;2.60;2.00;;;;;;;;5091043;28;8966;-82
2023/07/13 08:59:48;;;;;;;;;4.20;3.00;;;;;;;;5088857;28;8835;-84
2023/07/13 09:02:26;;;;;;;;;5.20;3.00;;;;;;;;5089242;28;8808;-84
2023/07/13 09:04:57;;;;;;;;;2.00;2.00;;;;;;;;5090104;28;8831;-76
2023/07/13 09:07:32;;;;;;;;;2.20;2.20;;;;;;;;5090871;28;8866;-78
2023/07/13 09:10:10;;;;;;;;;1.20;0.40;;;;;;;;5089974;28;8841;-82
2023/07/13 09:12:45;;;;;;;;;2.00;2.00;;;;;;;;5089921;28;8816;-76
2023/07/13 09:15:25;;;;;;;;;1.80;1.80;;;;;;;;5089964;28;8848;-77
2023/07/13 09:17:55;;;;;;;;;2.60;1.80;;;;;;;;5077233;28;8879;-82
2023/07/13 09:20:26;;;;;;;;;3.60;2.00;;;;;;;;5080301;28;8849;-84
2023/07/13 09:22:54;;;;;;;;;1.80;1.80;;;;;;;;5080699;28;8814;-84
2023/07/13 09:25:27;;;;;;;;;1.40;1.40;;;;;;;;5070672;28;8849;-84
2023/07/13 09:27:59;;;;;;;;;3.20;2.00;;;;;;;;5085956;28;9653;-85
2023/07/13 09:30:35;;;;;;;;;2.80;2.80;;;;;;;;5091222;28;8750;-84
2023/07/13 09:33:02;;;;;;;;;2.20;2.00;;;;;;;;5092517;28;8834;-85
2023/07/13 09:35:31;;;;;;;;;1.00;1.00;;;;;;;;5086267;28;8852;-84
2023/07/13 09:38:00;;;;;;;;;1.80;1.80;;;;;;;;5074065;28;8842;-84
2023/07/13 09:40:37;;;;;;;;;3.40;2.00;;;;;;;;5073618;28;8848;-83
2023/07/13 09:43:05;;;;;;;;;1.80;1.80;;;;;;;;5071970;28;8858;-83
2023/07/13 09:45:35;;;;;;;;;2.80;0.60;;;;;;;;5070701;28;8856;-83
2023/07/13 09:48:07;;;;;;;;;1.80;1.80;;;;;;;;5069206;28;9609;-81
2023/07/13 09:50:35;;;;;;;;;3.80;2.60;;;;;;;;5069725;28;8870;-81
2023/07/13 09:53:03;;;;;;;;;1.80;1.80;;;;;;;;5080411;28;8831;-85
2023/07/13 09:55:34;;;;;;;;;5.80;2.00;;;;;;;;5089859;28;8852;-86
2023/07/13 09:58:06;;;;;;;;;1.40;1.40;;;;;;;;5089980;28;8844;-79
2023/07/13 10:00:35;;;;;;;;;3.20;1.40;;;;;;;;5089481;28;8761;-82
2023/07/13 10:03:06;;;;;;;;;4.20;4.20;;;;;;;;5090769;28;8978;-84
2023/07/13 10:05:41;;;;;;;;;2.80;2.80;;;;;;;;5091810;28;8827;-82
2023/07/13 10:08:18;;;;;;;;;2.00;2.00;;;;;;;;5089300;28;8839;-82
2023/07/13 10:10:45;;;;;;;;;4.50;4.50;;;;;;;;5089252;28;8855;-81
2023/07/13 10:13:31;;;;;;;;;3.00;3.00;;;;;;;;5089634;28;8840;-83
2023/07/13 10:16:00;;;;;;;;;5.00;5.00;;;;;;;;5093762;28;8851;-81
2023/07/13 10:18:29;;;;;;;;;2.00;2.00;;;;;;;;5093413;28;8984;-80
2023/07/13 10:21:05;;;;;;;;;3.75;3.25;;;;;;;;5093233;28;8828;-80
2023/07/13 10:23:33;;;;;;;;;2.00;2.00;;;;;;;;5092928;28;8897;-78
2023/07/13 10:26:02;;;;;;;;;1.50;1.25;;;;;;;;5090997;28;8910;-77
2023/07/13 10:28:31;;;;;;;;;2.50;2.00;;;;;;;;5072760;28;8857;-77
2023/07/13 10:31:02;;;;;;;;;2.40;2.00;;;;;;;;5072150;28;8771;-78
2023/07/13 10:33:29;;;;;;;;;0.60;0.60;;;;;;;;5073577;28;8862;-80
2023/07/13 10:36:13;;;;;;;;;1.00;1.00;;;;;;;;5076296;28;9597;-79
2023/07/13 10:38:41;;;;;;;;;2.00;2.00;;;;;;;;5073802;28;8845;-82
2023/07/13 10:41:13;;;;;;;;;2.80;0.80;;;;;;;;5072603;28;8846;-81
2023/07/13 10:43:44;;;;;;;;;1.00;1.00;;;;;;;;5073155;28;8853;-80
2023/07/13 10:46:15;;;;;;;;;1.60;1.60;;;;;;;;5072900;28;8862;-83
2023/07/13 10:48:44;;;;;;;;;4.20;1.00;;;;;;;;5072956;28;8842;-79
2023/07/13 10:51:15;;;;;;;;;1.20;1.20;;;;;;;;5072463;28;9667;-81
2023/07/13 10:53:42;;;;;;;;;0.80;0.80;;;;;;;;5072834;28;8858;-83
2023/07/13 10:56:26;;;;;;;;;2.60;1.00;;;;;;;;5072827;28;8919;-81
2023/07/13 10:59:06;;;;;;;;;0.60;0.60;;;;;;;;5072434;28;8845;-79
2023/07/13 11:01:48;;;;;;;;;1.00;1.00;;;;;;;;5071909;28;8778;-79
2023/07/13 11:04:16;;;;;;;;;0.00;0.00;;;;;;;;5072856;28;8973;-78
2023/07/13 11:06:45;;;;;;;;;1.00;1.00;;;;;;;;5073025;28;8944;-79
2023/07/13 11:09:37;;;;;;;;;0.80;0.80;;;;;;;;5074545;28;9632;-80
2023/07/13 11:12:14;;;;;;;;;0.40;0.40;;;;;;;;5074736;28;8884;-78
2023/07/13 11:14:45;;;;;;;;;0.80;0.80;;;;;;;;5074275;28;8903;-74
2023/07/13 11:17:36;;;;;;;;;0.60;0.60;;;;;;;;5072904;28;8856;-81
2023/07/13 11:20:34;;;;;;;;;0.00;0.00;;;;;;;;5072502;28;8850;-82
2023/07/13 11:23:28;;;;;;;;;0.80;0.80;;;;;;;;5072061;28;8838;-78
2023/07/13 11:25:55;;;;;;;;;0.80;0.80;;;;;;;;5071507;28;8846;-79
2023/07/13 11:28:25;;;;;;;;;0.20;0.20;;;;;;;;5091897;28;8840;-77
2023/07/13 11:31:03;;;;;;;;;0.40;0.00;;;;;;;;5090928;28;8798;-75
2023/07/13 11:33:55;;;;;;;;;0.20;0.00;;;;;;;;5091399;28;8871;-78
2023/07/13 11:36:25;;;;;;;;;0.00;0.00;;;;;;;;5091598;28;8966;-77
2023/07/13 11:39:02;;;;;;;;;1.00;1.00;;;;;;;;5091425;28;8848;-76
2023/07/13 11:41:31;;;;;;;;;1.80;0.00;;;;;;;;5091246;28;8946;-74
2023/07/13 11:44:08;;;;;;;;;0.00;0.00;;;;;;;;5090884;28;8855;-77
2023/07/13 11:46:35;;;;;;;;;0.00;0.00;;;;;;;;5091282;28;8859;-75
2023/07/13 11:49:06;;;;;;;;;0.00;0.00;;;;;;;;5090751;28;8991;-72
2023/07/13 11:51:35;;;;;;;;;0.00;0.00;;;;;;;;5091167;28;8844;-76
2023/07/13 11:54:04;;;;;;;;;1.80;0.00;;;;;;;;5091084;28;8846;-79
2023/07/13 11:56:33;;;;;;;;;0.20;0.00;;;;;;;;5091076;28;8839;-76
2023/07/13 11:59:06;;;;;;;;;0.00;0.00;;;;;;;;5091024;28;8836;-75
2023/07/13 12:01:43;;;;;;;;;0.80;0.80;;;;;;;;5090690;28;8776;-76
2023/07/13 12:04:23;;;;;;;;;0.20;0.20;;;;;;;;5091205;28;8840;-75
2023/07/13 12:06:59;;;;;;;;;2.60;1.80;;;;;;;;5091010;28;8866;-71
2023/07/13 12:09:29;;;;;;;;;1.20;0.80;;;;;;;;5090868;28;8843;-74
2023/07/13 12:11:59;;;;;;;;;0.80;0.80;;;;;;;;5090766;28;8835;-71
2023/07/13 12:14:27;;;;;;;;;1.00;0.20;;;;;;;;5090835;28;8844;-74
2023/07/13 12:16:57;;;;;;;;;0.00;0.00;;;;;;;;5090791;28;8848;-74
2023/07/13 12:19:29;;;;;;;;;1.60;0.00;;;;;;;;5090504;28;8852;-69
2023/07/13 12:21:59;;;;;;;;;0.00;0.00;;;;;;;;5090504;28;8831;-75
2023/07/13 12:24:26;;;;;;;;;0.60;0.60;;;;;;;;5090765;28;9002;-74
2023/07/13 12:26:55;;;;;;;;;0.20;0.20;;;;;;;;5081134;28;8848;-74
2023/07/13 12:29:23;;;;;;;;;0.00;0.00;;;;;;;;5070193;28;9625;-75
2023/07/13 12:31:52;;;;;;;;;0.20;0.20;;;;;;;;5069678;28;8778;-79
2023/07/13 12:34:21;;;;;;;;;0.20;0.20;;;;;;;;5070310;28;8874;-78
2023/07/13 12:36:51;;;;;;;;;1.60;0.20;;;;;;;;5070732;28;8915;-78
2023/07/13 12:39:21;;;;;;;;;1.80;0.80;;;;;;;;5072484;28;8940;-78
2023/07/13 12:41:49;;;;;;;;;0.60;0.60;;;;;;;;5072170;28;8864;-79
2023/07/13 12:44:18;;;;;;;;;0.00;0.00;;;;;;;;5071115;28;8834;-78
2023/07/13 12:46:59;;;;;;;;;0.20;0.20;;;;;;;;5072202;28;8845;-77
2023/07/13 12:49:32;;;;;;;;;0.00;0.00;;;;;;;;5072415;28;8846;-77
2023/07/13 12:52:03;;;;;;;;;0.00;0.00;;;;;;;;5071256;28;8846;-78
2023/07/13 12:54:31;;;;;;;;;0.00;0.00;;;;;;;;5070172;28;8873;-77
2023/07/13 12:56:59;;;;;;;;;0.00;0.00;;;;;;;;5069649;28;8846;-74
2023/07/13 12:59:32;;;;;;;;;0.20;0.20;;;;;;;;5069824;28;8838;-76
2023/07/13 13:02:00;;;;;;;;;0.80;0.00;;;;;;;;5069406;28;8889;-77
2023/07/13 13:04:27;;;;;;;;;1.20;0.20;;;;;;;;5069767;28;8850;-77
2023/07/13 13:07:10;;;;;;;;;2.40;0.80;;;;;;;;5069523;28;8856;-77
2023/07/13 13:09:37;;;;;;;;;0.20;0.20;;;;;;;;5069757;28;8864;-76
2023/07/13 13:12:05;;;;;;;;;0.00;0.00;;;;;;;;5075800;28;9457;-77
2023/07/13 13:14:32;;;;;;;;;0.00;0.00;;;;;;;;5081629;28;8918;-72
2023/07/13 13:17:00;;;;;;;;;0.00;0.00;;;;;;;;5088224;28;8866;-70
2023/07/13 13:19:29;;;;;;;;;0.00;0.00;;;;;;;;5086991;28;8843;-77
2023/07/13 13:21:59;;;;;;;;;0.00;0.00;;;;;;;;5082090;28;8927;-77
2023/07/13 13:24:29;;;;;;;;;0.00;0.00;;;;;;;;5069831;28;8834;-75
2023/07/13 13:26:57;;;;;;;;;0.00;0.00;;;;;;;;5077933;28;8843;-76
2023/07/13 13:29:25;;;;;;;;;0.00;0.00;;;;;;;;5081365;28;8841;-81
2023/07/13 13:31:56;;;;;;;;;0.00;0.00;;;;;;;;5082232;28;8800;-79
2023/07/13 13:34:24;;;;;;;;;0.60;0.00;;;;;;;;5086444;28;8897;-77
2023/07/13 13:36:53;;;;;;;;;0.20;0.00;;;;;;;;5087407;28;8891;-76
2023/07/13 13:39:23;;;;;;;;;0.00;0.00;;;;;;;;5088668;28;8840;-77
2023/07/13 13:41:53;;;;;;;;;0.00;0.00;;;;;;;;5086888;28;9618;-76
2023/07/13 13:44:21;;;;;;;;;0.00;0.00;;;;;;;;5085663;28;8958;-77
2023/07/13 13:46:50;;;;;;;;;0.00;0.00;;;;;;;;5084942;28;8844;-77
2023/07/13 13:49:19;;;;;;;;;0.00;0.00;;;;;;;;5069449;28;8845;-72
2023/07/13 13:51:47;;;;;;;;;0.00;0.00;;;;;;;;5068997;28;8842;-70
2023/07/13 13:54:16;;;;;;;;;0.00;0.00;;;;;;;;5079605;28;8820;-70
2023/07/13 13:56:44;;;;;;;;;0.00;0.00;;;;;;;;5069968;28;8872;-77
2023/07/13 13:59:14;;;;;;;;;0.00;0.00;;;;;;;;5069302;28;8866;-77
2023/07/13 14:01:42;;;;;;;;;0.00;0.00;;;;;;;;5068985;28;8798;-75
2023/07/13 14:04:14;;;;;;;;;0.00;0.00;;;;;;;;5069876;28;9617;-75
2023/07/13 14:06:41;;;;;;;;;0.00;0.00;;;;;;;;5081913;28;8859;-77
2023/07/13 14:09:10;;;;;;;;;0.00;0.00;;;;;;;;5089370;28;9661;-76
2023/07/13 14:11:38;;;;;;;;;0.00;0.00;;;;;;;;5088655;28;8939;-72
2023/07/13 14:14:05;;;;;;;;;0.00;0.00;;;;;;;;5089755;28;8970;-81
2023/07/13 14:16:35;;;;;;;;;0.00;0.00;;;;;;;;5091237;28;8832;-82
2023/07/13 14:19:02;;;;;;;;;0.00;0.00;;;;;;;;5091841;28;8918;-77
2023/07/13 14:21:30;;;;;;;;;0.00;0.00;;;;;;;;5092615;28;8864;-79
2023/07/13 14:23:58;;;;;;;;;0.00;0.00;;;;;;;;5091745;28;8832;-77
2023/07/13 14:26:27;;;;;;;;;0.00;0.00;;;;;;;;5085310;28;8822;-74
2023/07/13 14:28:58;;;;;;;;;0.00;0.00;;;;;;;;5069874;28;8842;-82
2023/07/13 14:31:28;;;;;;;;;1.00;0.00;;;;;;;;5068723;28;8774;-79
2023/07/13 14:33:57;;;;;;;;;0.00;0.00;;;;;;;;5068741;28;8836;-75
2023/07/13 14:36:30;;;;;;;;;0.00;0.00;;;;;;;;5068653;28;8838;-76
2023/07/13 14:38:58;;;;;;;;;0.20;0.00;;;;;;;;5068471;28;8927;-79
2023/07/13 14:41:26;;;;;;;;;0.00;0.00;;;;;;;;5068288;28;8822;-72
2023/07/13 14:43:54;;;;;;;;;0.00;0.00;;;;;;;;5068096;28;8902;-77
2023/07/13 14:46:28;;;;;;;;;0.00;0.00;;;;;;;;5076597;28;8828;-80
2023/07/13 14:49:02;;;;;;;;;0.00;0.00;;;;;;;;5088429;28;8897;-79
2023/07/13 14:51:29;;;;;;;;;0.40;0.00;;;;;;;;5088701;28;9641;-80
2023/07/13 14:53:57;;;;;;;;;0.00;0.00;;;;;;;;5086906;28;8851;-71
2023/07/13 14:56:27;;;;;;;;;0.00;0.00;;;;;;;;5088466;28;8942;-79
2023/07/13 14:58:54;;;;;;;;;0.00;0.00;;;;;;;;5088278;28;9594;-79
2023/07/13 15:01:22;;;;;;;;;0.00;0.00;;;;;;;;5089803;28;9641;-77
2023/07/13 15:03:51;;;;;;;;;0.00;0.00;;;;;;;;5089578;28;9603;-74
2023/07/13 15:06:20;;;;;;;;;0.00;0.00;;;;;;;;5092306;28;8871;-79
2023/07/13 15:08:48;;;;;;;;;0.00;0.00;;;;;;;;5091889;28;8844;-72
2023/07/13 15:11:16;;;;;;;;;0.00;0.00;;;;;;;;5092378;28;8945;-77